CEB weather

Mactan Cebu International Airport
Lapu-Lapu City, Cebu Province, Philippines

Public forecast

Using degrees Celsius for public forecast. Weather courtesy of forecast.io.

Current aviation weather report (METAR) for Mactan Cebu International Airport

Retrieved 2019/10/18 20:00 UTC (35 minutes ago):

RPVM 182000Z 00000KT 9999 FEW020 26/23 Q1010 RMK A2983

Aviation forecast (TAF) for Mactan Cebu International Airport

Retrieved 2019/10/18 18:00 UTC (3 hours ago):

TAF RPVM 181700Z 1818/1924 04004KT 9999 FEW020 SCT300 TEMPO 1818/1824 01005KT FEW020 BKN100 TEMPO 1900/1906 06008KT -SHRA FEW018CB FEW020 BKN100